Main page
METAR-TAF:

METAR-TAF

Airports :

Fujairah International Airport

Fujairah, United Arab Emirates

latitude: 25-06N, longitude: 056-20E, elevation: 28 m

Current weather observation

The report was made 32 minutes ago, at 08:00 UTC
Wind 9 kt from the East/Northeast
Temperature 37°C
Humidity 54%
Pressure 996 hPa
Visibility: 4000 m
haze

METAR: OMFJ 200800Z 06009KT 4000 HZ NSC 37/26 Q0996 RMK A2943

Time: 12:32 (08:32 UTC)

Forecast

The report was made 3 hours and 32 minutes ago, at 05:00 UTC
Forecast valid from 20 at 06 UTC to 21 at 12 UTC
Wind 8 kt from the East
Visibility: 5000 m
haze
Becoming
from 20 at 14 UTC to 20 at 16 UTC
Wind 3 kt from variable directions
Temporary
from 20 at 18 UTC to 21 at 03 UTC
Wind 5 kt from the West/Northwest
Visibility: 3000 m
widespread dust

TAF: OMFJ 200500Z 2006/2112 08008KT 5000 HZ NSC BECMG 2014/2016 VRB03KT TEMPO 2018/2103 29005KT 3000 DU

Weather observations and forecasts of more than 4000 airports (METAR and TAF reports).

The available stations are represented by yellow and red dots on the map.

Hover mouse over dot to see the name of the station.

Then click to see weather observations and forecasts.

To change the map : click on the green buttons with a black cross to zoom in, on the green button with a dash to zoom out, or on the green arrows for adjacent maps.


METAR-TAF: